Aérodrome :
LOGIN :

S'inscrire | Disclaimer

   EN    FR    IT 

 










Légende :    VFR   VFR Marginal   IFR   IFR Intensif   IFR Très Intensif
Visi : 
Plafond : 
>= 8 km
>= 3000ft
5 à 8 km
1000 à 3000 ft
1500m à 5 km
500 à 1000 ft
800 à 1500m
200 à 500 ft
< 800m
< 200 ft
Symboles :   Orages  Brouillard  Fortes neiges  Fortes précipitations  Vent > 20 kt
SIGMETs :   Divers  Orages  Givrage  Turbulence  Onde Orograph.  Cendres Volcan.







- Altitude de l'aérodrome : 297 ft
- Code IATA : UIP
- Voir les cartes d'approche


LFRQ - Quimper Pluguffan

DERNIER METAR :
  • 260900Z AUTO 28008KT 250V310 9999 FEW029 SCT045 BKN058 12/06 Q1023 NOSIG

METARs EXPIRÉS :
  • 260830Z AUTO 25009KT 9999 BKN028 BKN033 BKN041 12/06 Q1022 NOSIG
  • 260800Z AUTO 27007KT 240V310 9999 SCT024 12/07 Q1023 NOSIG
  • 260730Z AUTO 27006KT 220V300 CAVOK 11/07 Q1023 NOSIG
  • 260700Z AUTO VRB03KT CAVOK 10/07 Q1023 NOSIG
  • 260630Z AUTO 29003KT CAVOK 08/07 Q1023 NOSIG

TAF TAF LFRQ
Valide du 26 à 06h jusqu'au 27 à 06h UTC


260500Z 2606/2706 28005KT 9999 SCT020
BECMG 2703/2706 18012G22KT BKN012
Pas de NOTAMs connus pour ce terrain.



MET'MAP, la Météo Aéronautique d'un coup d'oeil ! - Copyright ORBIFLY Décembre 2007 - Disclaimer

ORBIFLY MET'MAP TEAM :

Programmation & Développement : Alexandra Zaïnal
Conception & Développement : Baudouin d'Aumeries
Co-Programmation & Développement : Marc-Olivier Méhu
Soutien technique & logistique : Manuel Goepfert

Contact : metmap@orbifly.com




SOURCES & CREDITS :

   NOAA